Time;durP1;ratioP1;P1;durP2;ratioP2;P2;SDS_P1;SDS_P2;PMS_P1;PMS_P2;Temp;Humidity;BMP_temperature;BMP_pressure;BME280_temperature;BME280_humidity;BME280_pressure;Samples;Min_cycle;Max_cycle;Signal;HPM_P1;HPM_P2
2021/03/22 00:01:57;;;;;;;4.40;1.60;;;17.70;58.40;;;;;;10461288;28;20104;-59
2021/03/22 00:06:58;;;;;;;3.85;1.65;;;17.70;58.30;;;;;;10491625;28;20477;-60
2021/03/22 00:11:59;;;;;;;4.88;1.58;;;17.70;58.20;;;;;;10482183;28;20385;-60
2021/03/22 00:16:59;;;;;;;3.97;1.55;;;17.70;58.20;;;;;;10460577;28;20126;-60
2021/03/22 00:22:00;;;;;;;3.55;1.25;;;17.70;58.10;;;;;;10481398;28;20037;-60
2021/03/22 00:27:01;;;;;;;3.33;1.33;;;17.70;58.00;;;;;;10497089;28;20416;-60
2021/03/22 00:32:03;;;;;;;5.03;1.63;;;17.70;58.00;;;;;;10490121;28;20032;-60
2021/03/22 00:37:04;;;;;;;3.05;1.55;;;17.70;57.90;;;;;;10461927;28;20029;-59
2021/03/22 00:42:06;;;;;;;3.65;1.30;;;17.70;57.90;;;;;;10459656;28;20439;-60
2021/03/22 00:47:08;;;;;;;4.00;1.45;;;17.80;57.90;;;;;;10461203;28;20029;-59
2021/03/22 00:52:11;;;;;;;3.40;1.50;;;17.80;57.90;;;;;;10485014;28;20039;-60
2021/03/22 00:57:11;;;;;;;3.83;1.63;;;17.80;57.80;;;;;;10500386;28;20113;-60
2021/03/22 01:02:12;;;;;;;5.22;1.58;;;17.70;57.70;;;;;;10500654;28;20048;-59
2021/03/22 01:07:13;;;;;;;5.15;1.80;;;17.70;57.70;;;;;;10500419;28;20135;-60
2021/03/22 01:12:14;;;;;;;5.40;1.73;;;17.70;57.60;;;;;;10500289;28;20029;-60
2021/03/22 01:17:14;;;;;;;5.25;1.60;;;17.70;57.60;;;;;;10493150;28;20060;-60
2021/03/22 01:22:15;;;;;;;3.50;1.63;;;17.70;57.60;;;;;;10471786;28;20037;-60
2021/03/22 01:27:16;;;;;;;5.88;1.80;;;17.70;57.60;;;;;;10458223;28;20037;-59
2021/03/22 01:32:17;;;;;;;3.72;1.67;;;17.80;57.50;;;;;;10457991;28;20070;-60
2021/03/22 01:37:17;;;;;;;3.75;1.60;;;17.80;57.50;;;;;;10458038;28;20032;-59
2021/03/22 01:42:45;;;;;;;3.00;1.38;;;17.80;57.40;;;;;;10456663;28;20033;-59
2021/03/22 01:47:46;;;;;;;2.22;1.20;;;17.80;57.40;;;;;;10464002;28;20060;-60
2021/03/22 01:52:49;;;;;;;3.25;1.45;;;17.80;57.40;;;;;;10477211;28;20550;-60
2021/03/22 01:57:49;;;;;;;3.28;1.40;;;17.70;57.30;;;;;;10455971;28;20444;-60
2021/03/22 02:03:08;;;;;;;7.45;1.65;;;17.70;57.30;;;;;;10479559;28;20107;-60
2021/03/22 02:08:11;;;;;;;4.13;1.55;;;17.70;57.30;;;;;;10496848;28;20029;-60
2021/03/22 02:13:16;;;;;;;5.47;1.90;;;17.80;57.40;;;;;;10496839;28;20419;-60
2021/03/22 02:18:40;;;;;;;4.05;1.13;;;17.70;57.30;;;;;;10478944;28;20090;-60
2021/03/22 02:24:34;;;;;;;2.60;1.05;;;17.70;57.20;;;;;;10483939;28;20032;-60
2021/03/22 02:30:19;;;;;;;5.95;2.22;;;17.70;57.20;;;;;;10497715;28;20123;-60
2021/03/22 02:35:57;;;;;;;3.72;1.42;;;17.70;57.20;;;;;;10448167;28;20044;-60
2021/03/22 02:41:17;;;;;;;7.82;1.98;;;17.70;57.20;;;;;;10454642;28;20162;-60
2021/03/22 02:46:18;;;;;;;4.18;1.58;;;17.80;57.30;;;;;;10454303;28;20070;-60
2021/03/22 02:51:43;;;;;;;3.42;1.38;;;17.70;57.20;;;;;;10483263;28;20028;-60
2021/03/22 02:56:56;;;;;;;2.28;1.30;;;17.70;57.10;;;;;;10492795;28;20028;-60
2021/03/22 03:02:04;;;;;;;4.28;1.38;;;17.70;57.10;;;;;;10495590;28;20060;-60
2021/03/22 03:07:09;;;;;;;3.95;1.42;;;17.70;57.00;;;;;;10495038;28;20032;-60
2021/03/22 03:12:22;;;;;;;3.78;1.70;;;17.80;57.00;;;;;;10496978;28;20027;-60
2021/03/22 03:17:24;;;;;;;2.75;1.13;;;17.80;57.00;;;;;;10495173;28;20044;-59
2021/03/22 03:22:25;;;;;;;2.10;0.75;;;17.80;57.00;;;;;;10463221;28;20043;-60
2021/03/22 03:27:26;;;;;;;3.70;1.67;;;17.80;57.00;;;;;;10463070;28;20032;-59
2021/03/22 03:32:27;;;;;;;3.15;1.60;;;17.80;57.00;;;;;;10462888;28;20025;-59
2021/03/22 03:37:27;;;;;;;3.28;1.88;;;17.70;56.90;;;;;;10462688;28;20354;-59
2021/03/22 03:42:28;;;;;;;2.60;1.25;;;17.70;56.90;;;;;;10462808;28;20103;-60
2021/03/22 03:47:28;;;;;;;4.82;1.55;;;17.80;57.00;;;;;;10462062;28;20075;-59
2021/03/22 03:52:29;;;;;;;3.92;1.50;;;17.80;56.90;;;;;;10494976;28;20149;-59
2021/03/22 03:57:33;;;;;;;2.83;1.13;;;17.80;57.00;;;;;;10503386;28;20116;-59
2021/03/22 04:02:33;;;;;;;3.90;1.55;;;17.70;56.90;;;;;;10503399;28;20473;-59
2021/03/22 04:07:34;;;;;;;3.00;1.58;;;17.80;56.90;;;;;;10492555;28;20075;-59
2021/03/22 04:12:35;;;;;;;3.55;1.40;;;17.80;56.90;;;;;;10461220;28;20148;-59
2021/03/22 04:17:35;;;;;;;2.45;1.45;;;17.70;56.90;;;;;;10486729;28;20071;-59
2021/03/22 04:22:36;;;;;;;3.50;1.98;;;17.70;56.90;;;;;;10464583;28;20040;-59
2021/03/22 04:27:37;;;;;;;3.53;1.20;;;17.80;56.90;;;;;;10460689;28;20123;-59
2021/03/22 04:32:37;;;;;;;2.90;0.95;;;17.70;56.90;;;;;;10460718;28;20029;-59
2021/03/22 04:37:38;;;;;;;2.95;1.50;;;17.80;56.90;;;;;;10460562;28;20056;-59
2021/03/22 04:42:39;;;;;;;2.88;1.38;;;17.70;56.90;;;;;;10460376;28;20060;-59
2021/03/22 04:47:39;;;;;;;2.13;1.20;;;17.70;56.80;;;;;;10469489;28;20033;-59
2021/03/22 04:52:40;;;;;;;3.65;2.05;;;17.70;56.90;;;;;;10459975;28;20061;-59
2021/03/22 04:57:41;;;;;;;2.83;1.58;;;17.70;56.90;;;;;;10459878;28;20187;-59
2021/03/22 05:02:41;;;;;;;4.80;1.75;;;17.80;56.90;;;;;;10459380;28;20500;-59
2021/03/22 05:07:43;;;;;;;3.50;1.30;;;17.80;56.80;;;;;;10458139;28;20346;-59
2021/03/22 05:12:44;;;;;;;5.85;1.63;;;17.70;56.80;;;;;;10459163;28;20029;-59
2021/03/22 05:17:45;;;;;;;2.63;1.58;;;17.70;56.70;;;;;;10485977;28;20040;-59
2021/03/22 05:22:46;;;;;;;1.75;0.88;;;17.80;56.80;;;;;;10491363;28;20040;-59
2021/03/22 05:27:47;;;;;;;2.90;1.17;;;17.70;56.80;;;;;;10498995;28;20028;-59
2021/03/22 05:32:48;;;;;;;3.65;1.40;;;17.70;56.80;;;;;;10494850;28;20705;-60
2021/03/22 05:37:49;;;;;;;1.92;1.00;;;17.80;56.80;;;;;;10457269;28;20029;-58
2021/03/22 05:43:29;;;;;;;6.68;1.42;;;17.80;56.80;;;;;;10454741;28;20033;-59
2021/03/22 05:49:05;;;;;;;3.83;1.58;;;17.70;57.60;;;;;;10453000;28;20373;-59
2021/03/22 05:54:20;;;;;;;7.35;2.05;;;17.80;57.00;;;;;;10451951;28;20070;-60
2021/03/22 06:00:01;;;;;;;4.45;2.00;;;17.80;57.40;;;;;;10455916;28;20104;-60
2021/03/22 06:05:18;;;;;;;4.65;1.70;;;17.90;58.10;;;;;;10437730;28;20040;-58
2021/03/22 06:10:21;;;;;;;7.07;2.25;;;17.80;58.50;;;;;;10452652;28;20047;-58
2021/03/22 06:16:00;;;;;;;7.03;2.33;;;17.90;57.60;;;;;;10455159;28;20064;-58
2021/03/22 06:21:10;;;;;;;7.25;2.45;;;17.90;57.20;;;;;;10445852;28;20484;-58
2021/03/22 06:26:34;;;;;;;6.78;2.22;;;18.00;57.50;;;;;;10456704;28;20037;-60
2021/03/22 06:31:35;;;;;;;9.80;2.92;;;18.00;57.50;;;;;;10445386;28;20033;-62
2021/03/22 06:36:36;;;;;;;12.25;2.90;;;18.00;57.50;;;;;;10444013;28;20025;-60
2021/03/22 06:41:50;;;;;;;12.15;3.30;;;17.90;57.50;;;;;;10453236;28;20040;-62
2021/03/22 06:47:05;;;;;;;7.07;1.98;;;17.90;58.20;;;;;;10452719;28;20056;-61
2021/03/22 06:52:11;;;;;;;9.32;2.50;;;17.90;57.80;;;;;;10454957;28;20029;-62
2021/03/22 06:57:23;;;;;;;15.73;3.88;;;17.80;58.00;;;;;;10476384;28;20025;-61
2021/03/22 07:02:24;;;;;;;21.52;3.08;;;17.80;59.00;;;;;;10446624;28;20103;-59
2021/03/22 07:07:26;;;;;;;13.25;2.97;;;17.80;59.40;;;;;;10455292;28;20063;-60
2021/03/22 07:12:37;;;;;;;12.93;3.22;;;17.80;58.90;;;;;;10454001;28;20805;-60
2021/03/22 07:17:37;;;;;;;6.97;2.75;;;17.70;58.50;;;;;;10453353;28;20057;-59
2021/03/22 07:22:39;;;;;;;11.05;2.33;;;17.70;58.30;;;;;;10476368;28;20065;-57
2021/03/22 07:27:50;;;;;;;10.27;2.85;;;17.70;58.20;;;;;;10469425;28;20033;-57
2021/03/22 07:33:40;;;;;;;9.60;2.97;;;17.70;58.10;;;;;;10462305;28;20052;-57
2021/03/22 07:39:25;;;;;;;11.33;1.97;;;17.70;58.00;;;;;;10448191;28;20045;-57
2021/03/22 07:44:51;;;;;;;8.00;2.22;;;17.70;58.00;;;;;;10470459;28;20071;-56
2021/03/22 07:50:04;;;;;;;6.13;2.10;;;17.60;58.00;;;;;;10447440;28;20068;-56
2021/03/22 07:55:44;;;;;;;6.68;2.17;;;17.60;57.70;;;;;;10455718;28;20032;-57
2021/03/22 08:00:56;;;;;;;8.77;2.00;;;17.70;57.60;;;;;;10456181;28;20083;-60
2021/03/22 08:06:43;;;;;;;5.45;2.30;;;17.70;57.50;;;;;;10445575;28;20404;-58
2021/03/22 08:11:54;;;;;;;3.60;1.52;;;17.70;57.40;;;;;;10457362;28;20151;-56
2021/03/22 08:17:12;;;;;;;13.20;2.40;;;17.70;57.40;;;;;;10460509;28;20048;-57
2021/03/22 08:22:33;;;;;;;4.43;1.70;;;17.70;57.30;;;;;;10459693;28;20055;-57
2021/03/22 08:27:42;;;;;;;8.02;2.05;;;17.70;57.20;;;;;;10458287;28;20060;-57
2021/03/22 08:33:02;;;;;;;4.60;1.73;;;17.70;57.20;;;;;;10454621;28;20111;-56
2021/03/22 08:38:14;;;;;;;7.90;2.20;;;17.60;57.50;;;;;;10454301;28;20068;-58
2021/03/22 08:44:02;;;;;;;8.50;1.55;;;17.60;57.80;;;;;;10459083;28;20033;-56
2021/03/22 08:49:24;;;;;;;6.18;1.60;;;17.60;57.60;;;;;;10457504;28;20027;-56
2021/03/22 08:54:33;;;;;;;5.65;1.60;;;17.60;57.20;;;;;;10453639;28;20020;-56
2021/03/22 08:59:35;;;;;;;8.63;1.65;;;17.60;57.20;;;;;;10451008;28;20106;-57
2021/03/22 09:04:36;;;;;;;9.95;2.28;;;17.50;56.30;;;;;;10455839;28;20029;-57
2021/03/22 09:09:44;;;;;;;6.30;1.38;;;17.60;56.30;;;;;;10453454;28;20029;-57
2021/03/22 09:14:50;;;;;;;5.28;1.52;;;17.70;55.80;;;;;;10456613;28;20112;-57
2021/03/22 09:20:18;;;;;;;5.57;1.60;;;17.60;55.00;;;;;;10456707;28;20123;-57
2021/03/22 09:25:46;;;;;;;12.05;3.30;;;17.60;54.90;;;;;;10454546;28;20079;-60
2021/03/22 09:31:11;;;;;;;5.22;1.85;;;17.60;54.90;;;;;;10466952;28;20045;-59
2021/03/22 09:36:38;;;;;;;5.95;1.88;;;17.80;54.50;;;;;;10447283;28;20033;-61
2021/03/22 09:41:59;;;;;;;3.78;1.30;;;17.90;53.80;;;;;;10472802;28;20024;-63
2021/03/22 09:47:05;;;;;;;6.68;1.55;;;18.00;53.70;;;;;;10465877;28;20039;-61
2021/03/22 09:52:24;;;;;;;7.05;1.10;;;18.00;53.30;;;;;;10461818;28;20032;-62
2021/03/22 09:57:39;;;;;;;4.97;1.10;;;18.10;52.70;;;;;;10437483;28;20116;-61
2021/03/22 10:02:51;;;;;;;2.42;0.82;;;18.10;52.30;;;;;;10452104;28;20055;-62
2021/03/22 10:08:31;;;;;;;5.20;0.82;;;18.00;52.20;;;;;;10458158;28;20046;-62
2021/03/22 10:14:42;;;;;;;5.78;1.15;;;18.10;51.80;;;;;;10490134;28;20064;-69
2021/03/22 10:19:46;;;;;;;7.45;1.40;;;18.20;51.60;;;;;;10420588;28;20139;-62
2021/03/22 10:25:27;;;;;;;10.75;1.70;;;18.10;52.00;;;;;;10449572;28;20036;-62
2021/03/22 10:30:28;;;;;;;6.43;1.10;;;18.10;52.00;;;;;;10464338;28;20047;-60
2021/03/22 10:35:59;;;;;;;8.70;1.25;;;18.10;52.20;;;;;;10453453;28;20027;-62
2021/03/22 10:41:03;;;;;;;9.32;1.20;;;18.10;52.60;;;;;;10446944;28;20167;-64
2021/03/22 10:46:23;;;;;;;5.53;1.27;;;18.10;52.80;;;;;;10449542;28;20040;-62
2021/03/22 10:51:35;;;;;;;;;;;18.10;53.20;;;;;;10448598;28;20120;-63
2021/03/22 10:56:53;;;;;;;3.65;1.00;;;18.00;53.50;;;;;;10465210;28;20343;-64
2021/03/22 11:01:58;;;;;;;3.13;0.95;;;17.90;53.80;;;;;;10438068;28;20111;-63
2021/03/22 11:07:09;;;;;;;2.90;1.08;;;17.80;54.00;;;;;;10448136;28;20413;-64
2021/03/22 11:12:10;;;;;;;3.70;0.82;;;17.80;54.30;;;;;;10448096;28;20479;-63
2021/03/22 11:17:17;;;;;;;1.98;0.70;;;17.80;54.40;;;;;;10480192;28;20045;-62
2021/03/22 11:22:39;;;;;;;4.03;0.82;;;17.80;54.60;;;;;;10488710;28;20059;-64
2021/03/22 11:28:15;;;;;;;7.00;1.05;;;17.70;54.70;;;;;;10459126;28;20033;-63
2021/03/22 11:33:24;;;;;;;2.05;1.05;;;17.70;54.90;;;;;;10458800;28;20041;-63
2021/03/22 11:38:33;;;;;;;1.63;0.38;;;17.60;55.10;;;;;;10471508;28;20035;-63
2021/03/22 11:43:38;;;;;;;1.97;0.83;;;17.60;55.30;;;;;;10455363;28;20044;-64
2021/03/22 11:48:40;;;;;;;2.15;1.10;;;17.50;55.40;;;;;;10453989;28;20448;-63
2021/03/22 11:54:07;;;;;;;6.10;1.25;;;17.50;55.40;;;;;;10465069;28;20029;-63
2021/03/22 11:59:22;;;;;;;2.35;0.70;;;17.50;55.50;;;;;;10470711;28;20025;-64
2021/03/22 12:04:23;;;;;;;3.72;0.75;;;17.50;55.60;;;;;;10453091;28;20036;-63
2021/03/22 12:09:27;;;;;;;7.07;1.00;;;17.50;55.60;;;;;;10455874;28;20499;-62
2021/03/22 12:14:28;;;;;;;7.43;1.45;;;17.50;56.90;;;;;;10453799;28;20051;-62
2021/03/22 12:19:36;;;;;;;7.57;0.93;;;17.50;57.20;;;;;;10453654;28;20136;-62
2021/03/22 12:24:37;;;;;;;6.63;0.97;;;17.50;57.70;;;;;;10448846;28;20033;-63
2021/03/22 12:29:38;;;;;;;2.92;1.00;;;17.50;57.90;;;;;;10465866;28;20112;-61
2021/03/22 12:34:39;;;;;;;3.78;1.08;;;17.50;58.10;;;;;;10452677;28;20752;-62
2021/03/22 12:39:39;;;;;;;2.92;0.60;;;17.50;58.00;;;;;;10451481;28;20029;-61
2021/03/22 12:44:42;;;;;;;4.30;0.73;;;17.50;57.80;;;;;;10451043;28;20405;-63
2021/03/22 12:49:42;;;;;;;5.68;1.42;;;17.50;57.30;;;;;;10443626;28;20087;-61
2021/03/22 12:54:43;;;;;;;5.32;1.17;;;17.50;57.10;;;;;;10452421;28;20496;-61
2021/03/22 12:59:44;;;;;;;2.22;0.60;;;17.50;56.90;;;;;;10452646;28;20477;-61
2021/03/22 13:04:46;;;;;;;1.88;0.50;;;17.50;56.70;;;;;;10452286;28;20029;-61
2021/03/22 13:09:48;;;;;;;4.22;0.88;;;17.50;56.70;;;;;;10452401;28;20044;-61
2021/03/22 13:14:51;;;;;;;9.40;0.90;;;17.50;56.60;;;;;;10452116;28;20505;-61
2021/03/22 13:19:51;;;;;;;1.10;0.40;;;17.50;56.50;;;;;;10451636;28;20052;-61
2021/03/22 13:24:52;;;;;;;2.95;0.85;;;17.50;56.50;;;;;;10451406;28;20632;-61
2021/03/22 13:29:53;;;;;;;3.50;0.77;;;17.50;56.50;;;;;;10452145;28;20059;-61
2021/03/22 13:34:54;;;;;;;1.02;0.60;;;17.50;56.50;;;;;;10451658;28;20032;-61
2021/03/22 13:39:55;;;;;;;3.30;0.60;;;17.50;56.50;;;;;;10451318;28;20037;-61
2021/03/22 13:44:55;;;;;;;1.77;0.55;;;17.50;56.40;;;;;;10442411;28;20464;-60
2021/03/22 13:49:56;;;;;;;2.60;0.40;;;17.50;56.30;;;;;;10450973;28;20037;-61
2021/03/22 13:54:57;;;;;;;2.47;0.50;;;17.50;56.20;;;;;;10447900;28;20069;-61
2021/03/22 13:59:57;;;;;;;2.20;0.70;;;17.50;56.20;;;;;;10449851;28;20060;-60
2021/03/22 14:05:00;;;;;;;1.73;0.52;;;17.40;56.20;;;;;;10462531;28;20076;-61
2021/03/22 14:10:00;;;;;;;1.05;0.60;;;17.40;56.20;;;;;;10466429;28;20511;-61
2021/03/22 14:15:03;;;;;;;3.53;0.60;;;17.40;56.30;;;;;;10466739;28;20056;-61
2021/03/22 14:20:04;;;;;;;4.00;0.65;;;17.40;56.40;;;;;;10470353;28;20531;-61
2021/03/22 14:25:07;;;;;;;1.17;0.50;;;17.40;56.40;;;;;;10466320;28;20036;-61
2021/03/22 14:30:14;;;;;;;1.40;0.47;;;17.40;56.20;;;;;;10454969;28;20053;-59
2021/03/22 14:35:17;;;;;;;0.80;0.50;;;17.40;56.90;;;;;;10437435;28;20061;-60
2021/03/22 14:40:19;;;;;;;2.63;0.43;;;17.40;56.20;;;;;;10478345;28;20063;-59
2021/03/22 14:45:26;;;;;;;1.60;0.55;;;17.50;56.00;;;;;;10457008;28;20520;-59
2021/03/22 14:50:32;;;;;;;0.63;0.50;;;17.50;55.90;;;;;;10478240;28;20416;-60
2021/03/22 14:55:33;;;;;;;1.85;0.38;;;17.50;56.00;;;;;;10473585;28;20504;-59
2021/03/22 15:00:38;;;;;;;1.45;0.70;;;17.50;56.30;;;;;;10446684;28;20493;-60
2021/03/22 15:05:42;;;;;;;1.35;0.65;;;17.50;55.90;;;;;;10454891;28;20032;-60
2021/03/22 15:10:44;;;;;;;1.38;0.50;;;17.50;55.80;;;;;;10457716;28;20036;-61
2021/03/22 15:22:56;;;;;;;5.60;0.88;;;17.50;56.10;;;;;;10437918;28;20068;-64
2021/03/22 15:27:58;;;;;;;10.40;0.82;;;17.50;56.30;;;;;;10455196;28;20037;-63
2021/03/22 15:32:59;;;;;;;7.40;1.10;;;17.50;56.70;;;;;;10459577;28;20045;-62
2021/03/22 15:38:00;;;;;;;6.05;1.13;;;17.50;57.00;;;;;;10454757;28;20408;-63
2021/03/22 15:43:00;;;;;;;8.80;1.02;;;17.50;57.20;;;;;;10454731;28;20048;-61
2021/03/22 15:48:01;;;;;;;4.03;0.70;;;17.50;56.90;;;;;;10472821;28;20037;-63
2021/03/22 15:53:02;;;;;;;5.32;1.20;;;17.50;57.00;;;;;;10455710;28;20032;-60
2021/03/22 15:58:04;;;;;;;11.77;1.67;;;17.50;57.00;;;;;;10444091;28;20044;-60
2021/03/22 16:03:12;;;;;;;11.95;1.65;;;17.50;56.70;;;;;;10452973;28;20029;-60
2021/03/22 16:08:15;;;;;;;10.38;1.15;;;17.50;56.60;;;;;;10452944;28;20059;-60
2021/03/22 16:13:38;;;;;;;2.83;0.70;;;17.50;56.50;;;;;;10453222;28;20036;-59
2021/03/22 16:18:39;;;;;;;4.55;0.88;;;17.50;56.40;;;;;;10448868;28;20726;-59
2021/03/22 16:23:40;;;;;;;5.65;1.25;;;17.50;56.30;;;;;;10449365;28;20212;-59
2021/03/22 16:28:41;;;;;;;4.97;0.80;;;17.50;56.20;;;;;;10460559;28;20073;-59
2021/03/22 16:33:42;;;;;;;6.53;0.82;;;17.50;56.20;;;;;;10462116;28;20393;-59
2021/03/22 16:38:42;;;;;;;9.73;1.33;;;17.50;56.10;;;;;;10475484;28;20064;-58
2021/03/22 16:43:43;;;;;;;8.15;1.23;;;17.60;56.50;;;;;;10478531;28;20112;-59
2021/03/22 16:48:44;;;;;;;4.32;1.00;;;17.60;56.20;;;;;;10479998;28;20035;-59
2021/03/22 16:53:49;;;;;;;9.90;1.50;;;17.60;55.90;;;;;;10475597;28;20029;-59
2021/03/22 16:58:50;;;;;;;7.35;1.00;;;17.60;55.70;;;;;;10480741;28;20041;-57
2021/03/22 17:03:51;;;;;;;8.95;1.67;;;17.60;55.20;;;;;;10488612;28;20037;-58
2021/03/22 17:08:52;;;;;;;12.45;1.75;;;17.70;60.20;;;;;;10500749;28;20124;-57
2021/03/22 17:13:53;;;;;;;2.85;1.08;;;17.70;58.70;;;;;;10468408;28;20037;-57
2021/03/22 17:18:54;;;;;;;18.63;1.35;;;17.70;59.50;;;;;;10479527;28;20033;-57
2021/03/22 17:23:57;;;;;;;13.98;2.13;;;17.70;59.00;;;;;;10470246;28;20125;-58
2021/03/22 17:28:59;;;;;;;10.27;1.40;;;17.70;58.60;;;;;;10458712;28;20028;-58
2021/03/22 17:34:00;;;;;;;14.57;2.10;;;17.70;58.20;;;;;;10470790;28;20354;-57
2021/03/22 17:39:00;;;;;;;12.20;1.85;;;17.70;58.10;;;;;;10468003;28;20108;-57
2021/03/22 17:44:01;;;;;;;9.98;1.77;;;17.70;58.20;;;;;;10465738;28;20037;-57
2021/03/22 17:49:02;;;;;;;7.85;1.42;;;17.60;58.30;;;;;;10486651;28;20036;-57
2021/03/22 17:54:03;;;;;;;9.15;1.27;;;17.60;58.30;;;;;;10462395;28;20033;-58
2021/03/22 17:59:04;;;;;;;11.98;1.67;;;17.60;58.40;;;;;;10442116;28;20048;-58
2021/03/22 18:04:06;;;;;;;4.93;1.20;;;17.60;58.50;;;;;;10458661;28;20040;-57
2021/03/22 18:09:06;;;;;;;5.82;2.40;;;17.50;58.20;;;;;;10467212;28;20116;-57
2021/03/22 18:14:08;;;;;;;9.02;1.63;;;17.50;58.30;;;;;;10455929;28;20155;-57
2021/03/22 18:19:08;;;;;;;7.80;2.28;;;17.50;58.40;;;;;;10455664;28;20037;-56
2021/03/22 18:24:09;;;;;;;5.75;1.25;;;17.50;58.50;;;;;;10455453;28;20080;-57
2021/03/22 18:29:10;;;;;;;11.13;2.03;;;17.50;58.40;;;;;;10466694;28;20083;-58
2021/03/22 18:34:15;;;;;;;4.97;1.10;;;17.50;58.80;;;;;;10454361;28;20485;-57
2021/03/22 18:39:17;;;;;;;7.07;0.88;;;17.60;58.70;;;;;;10457771;28;20043;-57
2021/03/22 18:44:18;;;;;;;9.43;1.27;;;17.60;58.60;;;;;;10450440;28;20060;-57
2021/03/22 18:49:19;;;;;;;9.25;1.38;;;17.60;59.50;;;;;;10449969;28;20047;-58
2021/03/22 18:54:20;;;;;;;6.15;1.13;;;17.60;59.30;;;;;;10461023;28;20028;-58
2021/03/22 18:59:20;;;;;;;5.55;1.08;;;17.60;59.20;;;;;;10488732;28;20112;-57
2021/03/22 19:04:21;;;;;;;2.67;0.90;;;17.60;59.40;;;;;;10480822;28;20033;-57
2021/03/22 19:09:22;;;;;;;4.03;1.40;;;17.60;59.60;;;;;;10454324;28;20033;-58
2021/03/22 19:14:23;;;;;;;4.35;1.65;;;17.60;59.70;;;;;;10454095;28;20074;-58
2021/03/22 19:19:23;;;;;;;3.78;1.60;;;17.60;60.00;;;;;;10453380;28;20022;-57
2021/03/22 19:24:24;;;;;;;3.97;1.48;;;17.70;60.30;;;;;;10454519;28;20083;-58
2021/03/22 19:29:25;;;;;;;4.20;1.38;;;17.80;61.80;;;;;;10455390;28;20426;-59
2021/03/22 19:34:26;;;;;;;4.75;1.38;;;17.80;61.60;;;;;;10457099;28;20484;-57
2021/03/22 19:39:27;;;;;;;3.47;1.73;;;17.80;62.50;;;;;;10473743;28;20038;-57
2021/03/22 19:44:28;;;;;;;5.03;1.83;;;17.80;62.30;;;;;;10472779;28;20433;-58
2021/03/22 19:49:29;;;;;;;3.20;1.70;;;17.80;62.50;;;;;;10484453;28;20036;-58
2021/03/22 19:54:29;;;;;;;3.47;1.75;;;17.90;62.90;;;;;;10455910;28;20057;-58
2021/03/22 19:59:30;;;;;;;3.13;2.13;;;17.90;63.10;;;;;;10461956;28;20025;-58
2021/03/22 20:04:31;;;;;;;7.10;2.30;;;17.90;62.70;;;;;;10482710;28;20064;-58
2021/03/22 20:09:31;;;;;;;4.60;1.45;;;17.90;62.40;;;;;;10472556;28;20055;-61
2021/03/22 20:14:32;;;;;;;3.50;1.88;;;17.90;62.00;;;;;;10480923;28;20029;-58
2021/03/22 20:19:33;;;;;;;3.97;2.05;;;17.80;62.20;;;;;;10460854;28;20033;-58
2021/03/22 20:24:34;;;;;;;4.13;2.17;;;17.80;62.10;;;;;;10470785;28;20060;-59
2021/03/22 20:29:35;;;;;;;3.28;2.00;;;17.70;61.60;;;;;;10474885;28;20041;-59
2021/03/22 20:34:35;;;;;;;3.55;1.70;;;17.70;61.50;;;;;;10471421;28;20518;-59
2021/03/22 20:39:36;;;;;;;5.57;3.00;;;17.60;61.40;;;;;;10460555;28;20055;-60
2021/03/22 20:44:37;;;;;;;5.43;2.30;;;17.50;61.20;;;;;;10465146;28;20063;-59
2021/03/22 20:49:38;;;;;;;3.70;1.90;;;17.50;61.00;;;;;;10477447;28;20428;-59
2021/03/22 20:54:38;;;;;;;3.95;1.55;;;17.50;60.90;;;;;;10466819;28;20138;-60
2021/03/22 20:59:39;;;;;;;2.28;1.52;;;17.50;60.80;;;;;;10477292;28;20108;-59
2021/03/22 21:04:40;;;;;;;2.67;1.58;;;17.50;60.60;;;;;;10459619;28;20028;-59
2021/03/22 21:09:40;;;;;;;2.60;1.35;;;17.50;60.50;;;;;;10470408;28;20044;-59
2021/03/22 21:14:41;;;;;;;6.07;1.73;;;17.50;60.20;;;;;;10492559;28;20091;-59
2021/03/22 21:19:42;;;;;;;2.83;1.40;;;17.50;60.00;;;;;;10474588;28;20088;-59
2021/03/22 21:24:42;;;;;;;3.10;1.30;;;17.60;59.80;;;;;;10458768;28;20477;-59
2021/03/22 21:29:43;;;;;;;2.28;1.35;;;17.60;59.60;;;;;;10460351;28;20374;-59
2021/03/22 21:34:44;;;;;;;2.35;1.15;;;17.60;59.40;;;;;;10481908;28;20444;-59
2021/03/22 21:39:45;;;;;;;2.28;1.25;;;17.60;59.10;;;;;;10483740;28;20043;-60
2021/03/22 21:44:45;;;;;;;1.65;1.00;;;17.60;59.00;;;;;;10495362;28;20032;-59
2021/03/22 21:49:46;;;;;;;2.47;1.17;;;17.60;58.70;;;;;;10498849;28;20068;-59
2021/03/22 21:54:47;;;;;;;4.22;1.50;;;17.60;58.70;;;;;;10492096;28;20155;-59
2021/03/22 21:59:47;;;;;;;2.92;1.60;;;17.70;58.60;;;;;;10456219;28;20045;-59
2021/03/22 22:04:48;;;;;;;3.70;1.60;;;17.60;58.40;;;;;;10457398;28;20104;-59
2021/03/22 22:09:49;;;;;;;2.30;1.17;;;17.70;58.40;;;;;;10478589;28;20056;-59
2021/03/22 22:14:51;;;;;;;3.55;1.55;;;17.70;58.20;;;;;;10467217;28;20047;-59
2021/03/22 22:19:52;;;;;;;1.60;1.25;;;17.60;58.10;;;;;;10455088;28;20127;-59
2021/03/22 22:24:53;;;;;;;2.78;1.17;;;17.70;58.00;;;;;;10459307;28;20560;-59
2021/03/22 22:29:53;;;;;;;3.15;1.52;;;17.60;57.90;;;;;;10496437;28;20063;-59
2021/03/22 22:34:54;;;;;;;2.50;1.15;;;17.70;57.90;;;;;;10482943;28;20480;-59
2021/03/22 22:39:55;;;;;;;2.70;1.00;;;17.70;57.70;;;;;;10495070;28;20090;-59
2021/03/22 22:44:56;;;;;;;2.55;1.45;;;17.70;57.70;;;;;;10477004;28;20136;-59
2021/03/22 22:49:56;;;;;;;1.45;0.93;;;17.70;57.60;;;;;;10455909;28;20033;-59
2021/03/22 22:54:57;;;;;;;2.60;1.30;;;17.70;57.50;;;;;;10454477;28;20448;-59
2021/03/22 22:59:58;;;;;;;2.03;1.38;;;17.70;57.30;;;;;;10482849;28;20033;-59
2021/03/22 23:04:58;;;;;;;2.45;1.33;;;17.70;57.30;;;;;;10484002;28;20025;-59
2021/03/22 23:09:59;;;;;;;2.08;1.17;;;17.70;57.20;;;;;;10488034;28;20114;-59
2021/03/22 23:15:00;;;;;;;2.47;1.27;;;17.70;57.10;;;;;;10455323;28;20104;-59
2021/03/22 23:20:05;;;;;;;2.97;1.30;;;17.70;57.70;;;;;;10457823;28;20067;-59
2021/03/22 23:25:07;;;;;;;7.28;1.60;;;17.70;57.10;;;;;;10495325;28;20039;-59
2021/03/22 23:30:14;;;;;;;2.40;1.20;;;17.70;57.00;;;;;;10490983;28;20024;-59
2021/03/22 23:35:16;;;;;;;7.07;1.17;;;17.70;56.90;;;;;;10466341;28;20489;-59
2021/03/22 23:40:17;;;;;;;1.88;1.00;;;17.70;56.90;;;;;;10471970;28;20036;-59
2021/03/22 23:45:32;;;;;;;2.20;1.33;;;17.70;56.90;;;;;;10493735;28;20036;-59
2021/03/22 23:50:49;;;;;;;2.53;1.05;;;17.70;56.70;;;;;;10490387;28;20082;-59
2021/03/22 23:55:51;;;;;;;2.13;1.10;;;17.70;56.70;;;;;;10479469;28;20549;-59
